Hauptseite
METAR-TAF:

METAR-TAF

Flughäfen :

Funchal, Madeira, Portugal

Flughafen Madeira

Breite: 32-41-52N, Länge: 016-46-28W, Höhe: 59 m

Beobachtung

Neuester Wetterbericht von vor 18 Minuten, um 11:30 UTC
Wind 22 kt aus Süd/Südwest
Temperatur 19°C
Luftfeuchtigkeit 73%
Luftdruck 1024 hPa
Sichtweite 10 km oder mehr
Leicht bewölkt in der Höhe von 1600 ft

METAR: LPMA 281130Z 20022KT 9999 FEW016 19/14 Q1024

Zeit: 12:48 (11:48 UTC)

Prognose

Neuester Wetterbericht von vor 48 Minuten, um 11:00 UTC
Gültige Prognose vom 28 um 12 UTC bis 29 um 12 UTC
Wind 18 kt aus Süd/Südwest
Sichtweite 10 km oder mehr
Aufgelockert bewölkt in der Höhe von 1600 ft
Übergehend zu
vom 28 um 15 UTC bis 28 um 18 UTC
Wind 12 kt aus Süd/Südwest
Übergehend zu
vom 28 um 21 UTC bis 28 um 24 UTC
Wind 5 kt aus unterschiedlichen Richtungen

TAF: LPMA 281100Z 2812/2912 20018KT 9999 SCT016 BECMG 2815/2818 20012KT BECMG 2821/2824 VRB05KT

Wetterbeobachtungen und Prognosen von mehr als 4000 Flughäfen (METAR und TAF Bericht).

Die verfügbaren Stationen werden durch gelbe und rote Markierungen auf der Karte dargestellt.

Führen Sie die Maus auf sie, um den Namen der Station zu sehen.

Darauf klicken, um die Beobachtung von Wetterbeobachtungen und Prognosen zu sehen.

Um die Karte zu ändern : klicken Sie auf den grünen Tasten mit einem schwarzen Kreuz Zum Vergrößern, auf den grünen Button mit einem Gedankenstrich zu verkleinern, oder auf die grünen Pfeile für benachbarte Karten.


METAR-TAF: